Portada
METAR-TAF:

METAR-TAF

Aeropuertos :

Aeropuerto Internacional Rey Abdulaziz

Yida, Arabia Saudita

latitud: 21-42N, longitud: 039-11E, altitud: 15 m

Observación

El informe se hizo hace 25 minutos, a las 14:00 UTC
Viento 12 kt del noroeste
Temperatura 25°C
Humedad 44%
Presión 1013 hPa
Visibilidad 10 km o más
sin nubes por debajo de 1500 m y sin presencia de cumulonimbus.

METAR: OEJN 181400Z 32012KT CAVOK 25/12 Q1013 NOSIG

Hora: 17:25 (14:25 UTC)

Pronóstico

El informe se hizo hace 3 horas y 25 minutos, a las 11:00 UTC
Pronóstico válido del 18 a las 12 UTC al 19 a las 18 UTC
Viento 12 kt del norte-noroeste
Visibilidad: 7000 m
Escasas nubes a una altura de 4000 ft
Evolucionando progresivamente
del 18 a las 18 UTC al 18 a las 20 UTC
Viento 8 kt del norte-noreste

TAF: OEJN 181100Z 1812/1918 34012KT 7000 FEW040 BECMG 1818/1820 03008KT

Observaciones y pronósticos meteorológicos de más de 4000 aeropuertos (mensajes METAR y TAF).

Los puntos amarillos y rojos representan las estaciones disponibles.

Ponga el ratón en el punto deseado para ver el nombre de la estación.

Haga clic para ver las observaciones y los pronósticos meteorológicos.

Para cambiar el mapa : haga clic en los botones verdes con una cruz de color negro para hacer un zoom, en el botón verde con un guión para alejar o en las flechas verdes para mapas adyacentes.


METAR-TAF: